Time;durP1;ratioP1;P1;durP2;ratioP2;P2;SDS_P1;SDS_P2;PMS_P1;PMS_P2;Temp;Humidity;BMP_temperature;BMP_pressure;BME280_temperature;BME280_humidity;BME280_pressure;Samples;Min_cycle;Max_cycle;Signal;HPM_P1;HPM_P2
2022/11/12 00:00:38;;;;;;;21.77;6.78;;;;;;;;;;5081050;28;20040;-66
2022/11/12 00:03:05;;;;;;;24.35;6.70;;;;;;;;;;5083958;28;20388;-65
2022/11/12 00:05:32;;;;;;;20.42;7.00;;;;;;;;;;5081256;28;20449;-66
2022/11/12 00:08:02;;;;;;;15.48;6.65;;;;;;;;;;5082675;28;20046;-66
2022/11/12 00:10:28;;;;;;;20.20;6.55;;;;;;;;;;5082095;27;20163;-65
2022/11/12 00:12:55;;;;;;;15.13;7.82;;;;;;;;;;5083466;28;20048;-66
2022/11/12 00:15:22;;;;;;;29.10;10.25;;;;;;;;;;5081922;28;20028;-66
2022/11/12 00:17:48;;;;;;;34.20;9.70;;;;;;;;;;5084774;28;20040;-67
2022/11/12 00:20:15;;;;;;;25.00;10.43;;;;;;;;;;5079448;28;20047;-65
2022/11/12 00:22:42;;;;;;;30.88;9.50;;;;;;;;;;5083672;28;20117;-67
2022/11/12 00:25:08;;;;;;;17.85;7.55;;;;;;;;;;5081421;28;20043;-65
2022/11/12 00:27:35;;;;;;;26.33;9.45;;;;;;;;;;5081509;28;20044;-66
2022/11/12 00:30:02;;;;;;;31.80;10.07;;;;;;;;;;5082022;27;20032;-65
2022/11/12 00:32:28;;;;;;;25.95;10.15;;;;;;;;;;5082160;28;20048;-65
2022/11/12 00:34:55;;;;;;;24.70;10.32;;;;;;;;;;5082602;28;20519;-66
2022/11/12 00:37:22;;;;;;;31.13;10.25;;;;;;;;;;5081993;28;20044;-66
2022/11/12 00:39:49;;;;;;;44.13;10.55;;;;;;;;;;5083123;27;20040;-66
2022/11/12 00:42:15;;;;;;;33.50;11.20;;;;;;;;;;5084497;28;20369;-66
2022/11/12 00:44:42;;;;;;;31.02;10.48;;;;;;;;;;5086139;28;20044;-67
2022/11/12 00:47:08;;;;;;;23.10;9.90;;;;;;;;;;5085677;28;20028;-66
2022/11/12 00:49:35;;;;;;;33.70;9.07;;;;;;;;;;5087957;28;20051;-66
2022/11/12 00:52:01;;;;;;;27.83;9.85;;;;;;;;;;5087358;28;20054;-67
2022/11/12 00:54:28;;;;;;;24.58;10.02;;;;;;;;;;5083933;28;20782;-65
2022/11/12 00:56:55;;;;;;;28.02;9.68;;;;;;;;;;5059808;28;21069;-66
2022/11/12 00:59:21;;;;;;;32.60;9.15;;;;;;;;;;5085589;28;20031;-65
2022/11/12 01:01:48;;;;;;;30.23;9.98;;;;;;;;;;5084750;28;20036;-66
2022/11/12 01:04:15;;;;;;;25.15;10.05;;;;;;;;;;5085856;28;20820;-66
2022/11/12 01:06:41;;;;;;;18.38;9.30;;;;;;;;;;5085089;28;20043;-66
2022/11/12 01:09:09;;;;;;;23.83;9.13;;;;;;;;;;5085412;28;20036;-65
2022/11/12 01:11:36;;;;;;;18.15;8.85;;;;;;;;;;5086900;28;20172;-66
2022/11/12 01:14:04;;;;;;;22.90;8.88;;;;;;;;;;5084321;28;20036;-67
2022/11/12 01:16:32;;;;;;;33.22;9.98;;;;;;;;;;5084529;28;20953;-65
2022/11/12 01:18:59;;;;;;;30.38;10.30;;;;;;;;;;5084566;28;20769;-68
2022/11/12 01:21:27;;;;;;;32.00;10.40;;;;;;;;;;5085401;28;20044;-66
2022/11/12 01:23:53;;;;;;;24.63;10.10;;;;;;;;;;5083543;28;20373;-65
2022/11/12 01:26:23;;;;;;;35.25;9.43;;;;;;;;;;5084141;28;20067;-67
2022/11/12 01:28:50;;;;;;;30.60;10.88;;;;;;;;;;5086630;28;20131;-66
2022/11/12 01:31:16;;;;;;;31.52;11.77;;;;;;;;;;5086386;27;20040;-67
2022/11/12 01:33:44;;;;;;;38.28;14.90;;;;;;;;;;5083630;28;20059;-66
2022/11/12 01:36:11;;;;;;;40.22;13.30;;;;;;;;;;5083899;28;20032;-67
2022/11/12 01:38:39;;;;;;;33.65;13.25;;;;;;;;;;5085247;28;20421;-67
2022/11/12 01:41:06;;;;;;;36.30;12.60;;;;;;;;;;5083623;28;20040;-64
2022/11/12 01:43:33;;;;;;;31.50;11.73;;;;;;;;;;5081085;28;20040;-68
2022/11/12 01:46:00;;;;;;;30.27;11.82;;;;;;;;;;5082832;28;20036;-68
2022/11/12 01:48:33;;;;;;;30.10;12.70;;;;;;;;;;5083932;28;20048;-67
2022/11/12 01:51:01;;;;;;;34.60;11.98;;;;;;;;;;5083627;27;20032;-67
2022/11/12 01:53:30;;;;;;;22.33;10.65;;;;;;;;;;5081350;28;20108;-67
2022/11/12 01:55:57;;;;;;;25.52;10.50;;;;;;;;;;5062705;28;20075;-68
2022/11/12 01:58:24;;;;;;;25.48;10.02;;;;;;;;;;5082801;28;20036;-67
2022/11/12 02:00:51;;;;;;;28.27;10.98;;;;;;;;;;5061949;28;20051;-68
2022/11/12 02:03:19;;;;;;;36.22;11.38;;;;;;;;;;5070729;28;20059;-70
2022/11/12 02:05:47;;;;;;;29.45;11.05;;;;;;;;;;5061770;28;20124;-67
2022/11/12 02:08:14;;;;;;;24.83;10.48;;;;;;;;;;5083901;28;20032;-68
2022/11/12 02:10:41;;;;;;;28.13;10.73;;;;;;;;;;5082049;28;20043;-68
2022/11/12 02:15:53;;;;;;;32.05;11.80;;;;;;;;;;5083415;28;20062;-66
2022/11/12 02:18:21;;;;;;;33.92;11.80;;;;;;;;;;5071998;28;20028;-67
2022/11/12 02:21:08;;;;;;;29.70;12.18;;;;;;;;;;5041459;28;21685;-65
2022/11/12 02:23:36;;;;;;;29.73;11.15;;;;;;;;;;5036237;28;20045;-65
2022/11/12 02:26:02;;;;;;;39.50;12.60;;;;;;;;;;5033581;28;20589;-66
2022/11/12 02:28:30;;;;;;;26.90;11.02;;;;;;;;;;5037968;28;20041;-65
2022/11/12 02:30:57;;;;;;;22.85;11.27;;;;;;;;;;5040304;28;20602;-66
2022/11/12 02:33:24;;;;;;;27.50;11.40;;;;;;;;;;5038928;28;20041;-66
2022/11/12 02:35:50;;;;;;;29.50;11.57;;;;;;;;;;5018493;28;20083;-65
2022/11/12 02:38:17;;;;;;;25.08;10.93;;;;;;;;;;4966318;28;2118771;-65
2022/11/12 02:40:44;;;;;;;30.95;12.75;;;;;;;;;;5038750;28;20084;-66
2022/11/12 02:43:10;;;;;;;28.10;11.55;;;;;;;;;;5042006;28;20610;-66
2022/11/12 02:45:37;;;;;;;26.48;12.07;;;;;;;;;;5040337;28;20047;-65
2022/11/12 02:48:03;;;;;;;23.90;11.48;;;;;;;;;;5040776;28;20079;-65
2022/11/12 02:50:30;;;;;;;28.88;12.10;;;;;;;;;;5042210;28;20128;-67
2022/11/12 02:52:57;;;;;;;24.13;10.88;;;;;;;;;;5040148;28;20041;-66
2022/11/12 02:55:23;;;;;;;20.75;10.77;;;;;;;;;;5041477;28;20636;-65
2022/11/12 02:57:50;;;;;;;31.08;11.82;;;;;;;;;;5050097;28;20484;-67
2022/11/12 03:00:17;;;;;;;24.30;11.55;;;;;;;;;;5081766;27;20063;-66
2022/11/12 03:02:57;;;;;;;24.88;10.57;;;;;;;;;;5062344;28;20071;-66
2022/11/12 03:05:32;;;;;;;27.50;10.40;;;;;;;;;;5024121;28;21447;-65
2022/11/12 03:08:03;;;;;;;37.05;11.25;;;;;;;;;;5034673;28;20068;-66
2022/11/12 03:10:30;;;;;;;40.50;11.70;;;;;;;;;;5014976;28;20068;-65
2022/11/12 03:12:58;;;;;;;28.33;10.75;;;;;;;;;;5038260;28;20090;-66
2022/11/12 03:15:25;;;;;;;23.98;9.70;;;;;;;;;;5032527;28;20084;-67
2022/11/12 03:17:51;;;;;;;37.25;10.73;;;;;;;;;;5034435;28;20036;-67
2022/11/12 03:20:18;;;;;;;22.27;9.70;;;;;;;;;;5021017;28;20069;-69
2022/11/12 03:22:55;;;;;;;23.00;10.68;;;;;;;;;;5037638;28;20029;-65
2022/11/12 03:25:21;;;;;;;24.27;10.23;;;;;;;;;;5036151;28;20037;-67
2022/11/12 03:27:48;;;;;;;21.58;10.38;;;;;;;;;;5036145;28;20106;-64
2022/11/12 03:30:16;;;;;;;26.02;10.48;;;;;;;;;;5037608;28;20073;-67
2022/11/12 03:32:42;;;;;;;25.15;9.93;;;;;;;;;;5038724;28;20052;-67
2022/11/12 03:35:09;;;;;;;21.50;10.27;;;;;;;;;;5036668;28;20035;-67
2022/11/12 03:37:37;;;;;;;21.95;10.07;;;;;;;;;;5034826;28;20057;-65
2022/11/12 03:40:03;;;;;;;25.27;9.63;;;;;;;;;;5036078;28;20386;-64
2022/11/12 03:42:30;;;;;;;25.27;10.50;;;;;;;;;;5048715;28;20046;-64
2022/11/12 03:44:57;;;;;;;27.02;9.52;;;;;;;;;;5079372;28;20039;-64
2022/11/12 03:47:23;;;;;;;20.75;9.77;;;;;;;;;;5081359;28;20039;-67
2022/11/12 03:49:50;;;;;;;21.73;10.07;;;;;;;;;;5082239;28;20035;-66
2022/11/12 03:52:16;;;;;;;18.20;9.27;;;;;;;;;;5082413;28;20044;-67
2022/11/12 03:54:43;;;;;;;27.60;9.32;;;;;;;;;;5080549;28;20126;-66
2022/11/12 03:57:10;;;;;;;23.10;8.63;;;;;;;;;;5099438;27;20096;-66
2022/11/12 03:59:36;;;;;;;19.80;8.35;;;;;;;;;;5080959;28;20048;-64
2022/11/12 04:02:03;;;;;;;28.00;9.90;;;;;;;;;;5083582;27;20095;-65
2022/11/12 04:08:34;;;;;;;24.08;9.18;;;;;;;;;;5082068;28;20392;-65
2022/11/12 04:10:01;;;;;;;19.65;8.40;;;;;;;;;;5081476;28;20092;-63
2022/11/12 04:15:12;;;;;;;15.35;7.68;;;;;;;;;;5084396;28;20093;-65
2022/11/12 04:23:09;;;;;;;17.75;7.50;;;;;;;;;;5089460;28;20070;-64
2022/11/12 04:28:20;;;;;;;17.33;8.15;;;;;;;;;;5088554;28;20086;-64
2022/11/12 04:30:47;;;;;;;22.65;7.28;;;;;;;;;;5089588;28;20806;-64
2022/11/12 04:33:13;;;;;;;18.33;7.75;;;;;;;;;;5088994;28;20193;-63
2022/11/12 04:35:40;;;;;;;28.38;7.78;;;;;;;;;;5072267;28;20090;-63
2022/11/12 04:38:06;;;;;;;19.63;7.35;;;;;;;;;;5089967;28;20387;-64
2022/11/12 04:46:04;;;;;;;19.25;7.78;;;;;;;;;;5088153;28;20573;-63
2022/11/12 04:48:31;;;;;;;26.92;7.30;;;;;;;;;;5087955;28;20057;-64
2022/11/12 04:51:01;;;;;;;18.52;6.53;;;;;;;;;;5087642;28;20332;-64
2022/11/12 04:53:29;;;;;;;20.90;6.97;;;;;;;;;;5080450;28;20490;-64
2022/11/12 04:55:57;;;;;;;13.80;6.95;;;;;;;;;;5087012;27;20157;-65
2022/11/12 04:58:23;;;;;;;10.10;5.30;;;;;;;;;;5087219;28;20032;-65
2022/11/12 05:00:50;;;;;;;21.70;6.88;;;;;;;;;;5087027;28;20044;-64
2022/11/12 05:03:17;;;;;;;24.08;6.88;;;;;;;;;;5087260;28;20040;-64
2022/11/12 05:05:44;;;;;;;15.93;6.63;;;;;;;;;;5084829;27;20503;-63
2022/11/12 05:08:10;;;;;;;15.18;6.60;;;;;;;;;;5086257;28;20130;-64
2022/11/12 05:10:37;;;;;;;18.35;6.75;;;;;;;;;;5083826;28;21124;-63
2022/11/12 05:13:03;;;;;;;16.58;6.70;;;;;;;;;;5087224;28;20040;-64
2022/11/12 05:15:30;;;;;;;15.57;6.90;;;;;;;;;;5085842;28;20563;-64
2022/11/12 05:17:56;;;;;;;13.18;5.95;;;;;;;;;;5088328;28;20032;-65
2022/11/12 05:20:23;;;;;;;14.75;5.55;;;;;;;;;;5087162;28;20040;-63
2022/11/12 05:22:50;;;;;;;12.02;5.22;;;;;;;;;;5087527;27;20080;-65
2022/11/12 05:25:16;;;;;;;19.00;6.53;;;;;;;;;;5087933;28;20052;-64
2022/11/12 05:27:43;;;;;;;15.65;6.07;;;;;;;;;;5086914;28;21712;-62
2022/11/12 05:30:10;;;;;;;18.45;6.68;;;;;;;;;;5088101;28;20113;-64
2022/11/12 05:32:36;;;;;;;16.90;6.28;;;;;;;;;;5088286;27;20040;-66
2022/11/12 05:35:03;;;;;;;18.50;6.78;;;;;;;;;;5086077;28;20081;-65
2022/11/12 05:37:29;;;;;;;21.15;7.38;;;;;;;;;;5087741;28;20047;-64
2022/11/12 05:39:56;;;;;;;19.67;7.30;;;;;;;;;;5086781;28;20051;-65
2022/11/12 05:42:23;;;;;;;16.80;7.68;;;;;;;;;;5087154;27;20121;-65
2022/11/12 05:44:49;;;;;;;12.30;6.60;;;;;;;;;;5065427;28;20047;-64
2022/11/12 05:47:16;;;;;;;16.02;6.63;;;;;;;;;;5087729;28;20499;-63
2022/11/12 05:49:42;;;;;;;15.35;6.70;;;;;;;;;;5073858;28;20039;-64
2022/11/12 05:52:29;;;;;;;14.15;6.63;;;;;;;;;;5023776;28;20084;-66
2022/11/12 05:54:55;;;;;;;12.35;5.63;;;;;;;;;;5022127;28;20045;-65
2022/11/12 05:57:22;;;;;;;16.98;6.03;;;;;;;;;;5025712;28;20041;-65
2022/11/12 05:59:49;;;;;;;16.90;6.18;;;;;;;;;;5023802;28;20507;-66
2022/11/12 06:02:16;;;;;;;14.93;5.60;;;;;;;;;;5024018;28;20053;-67
2022/11/12 06:04:42;;;;;;;7.82;4.68;;;;;;;;;;5021196;28;20038;-65
2022/11/12 06:07:09;;;;;;;13.00;5.68;;;;;;;;;;5024129;28;20448;-65
2022/11/12 06:09:35;;;;;;;11.27;4.70;;;;;;;;;;5023204;28;20105;-65
2022/11/12 06:12:05;;;;;;;12.30;5.35;;;;;;;;;;5023735;28;20048;-63
2022/11/12 06:14:31;;;;;;;12.38;5.30;;;;;;;;;;5022510;28;20498;-62
2022/11/12 06:16:58;;;;;;;13.82;5.88;;;;;;;;;;5024513;28;20056;-65
2022/11/12 06:19:24;;;;;;;10.30;4.93;;;;;;;;;;5021488;28;20073;-66
2022/11/12 06:21:51;;;;;;;19.77;6.82;;;;;;;;;;5023035;28;20501;-64
2022/11/12 06:24:17;;;;;;;17.45;5.70;;;;;;;;;;5073121;27;20040;-65
2022/11/12 06:26:44;;;;;;;11.50;6.07;;;;;;;;;;5087204;28;20044;-65
2022/11/12 06:29:11;;;;;;;22.25;5.97;;;;;;;;;;5087320;28;20042;-64
2022/11/12 06:31:37;;;;;;;16.25;6.05;;;;;;;;;;5086940;27;20064;-63
2022/11/12 06:34:05;;;;;;;20.50;6.38;;;;;;;;;;5086428;28;21052;-64
2022/11/12 06:36:32;;;;;;;11.68;5.90;;;;;;;;;;5085035;27;20096;-65
2022/11/12 06:38:59;;;;;;;12.57;5.93;;;;;;;;;;5084193;28;20052;-65
2022/11/12 06:41:25;;;;;;;13.27;6.00;;;;;;;;;;5084438;27;20075;-63
2022/11/12 06:43:52;;;;;;;10.98;5.32;;;;;;;;;;5085570;28;20040;-65
2022/11/12 06:46:18;;;;;;;19.67;5.20;;;;;;;;;;5085449;28;20116;-62
2022/11/12 06:48:45;;;;;;;13.65;5.90;;;;;;;;;;5086953;28;20039;-62
2022/11/12 06:51:19;;;;;;;14.23;5.70;;;;;;;;;;5078414;28;20101;-65
2022/11/12 06:53:46;;;;;;;12.07;5.55;;;;;;;;;;5083785;28;20042;-66
2022/11/12 06:56:13;;;;;;;17.23;6.80;;;;;;;;;;5084940;28;20090;-66
2022/11/12 06:58:39;;;;;;;12.70;5.95;;;;;;;;;;5085555;28;20526;-65
2022/11/12 07:01:16;;;;;;;13.43;6.05;;;;;;;;;;5084764;27;20048;-64
2022/11/12 07:03:43;;;;;;;11.60;5.43;;;;;;;;;;5085309;28;20044;-64
2022/11/12 07:06:11;;;;;;;15.23;5.47;;;;;;;;;;5085169;28;20182;-63
2022/11/12 07:08:38;;;;;;;20.77;5.90;;;;;;;;;;5083684;28;20043;-64
2022/11/12 07:11:05;;;;;;;16.27;6.43;;;;;;;;;;5085221;28;20448;-62
2022/11/12 07:13:33;;;;;;;10.18;6.38;;;;;;;;;;5085294;28;20032;-62
2022/11/12 07:16:00;;;;;;;10.77;6.00;;;;;;;;;;5085764;28;20039;-65
2022/11/12 07:18:27;;;;;;;16.20;5.65;;;;;;;;;;5084115;28;20058;-65
2022/11/12 07:21:00;;;;;;;12.30;5.55;;;;;;;;;;5085536;28;20492;-64
2022/11/12 07:23:27;;;;;;;10.05;4.95;;;;;;;;;;5084023;28;20077;-63
2022/11/12 07:26:01;;;;;;;8.23;4.80;;;;;;;;;;5078829;28;20027;-64
2022/11/12 07:28:28;;;;;;;12.10;5.90;;;;;;;;;;5083304;28;20150;-64
2022/11/12 07:30:55;;;;;;;11.52;5.22;;;;;;;;;;5085482;28;20130;-65
2022/11/12 07:33:22;;;;;;;13.73;5.28;;;;;;;;;;5084805;28;20780;-64
2022/11/12 07:35:49;;;;;;;31.63;5.40;;;;;;;;;;5085539;28;20298;-62
2022/11/12 07:38:15;;;;;;;11.60;4.68;;;;;;;;;;5084729;28;20416;-64
2022/11/12 07:40:42;;;;;;;12.23;4.70;;;;;;;;;;5070064;28;20067;-67
2022/11/12 07:43:08;;;;;;;9.18;4.47;;;;;;;;;;5085517;28;20043;-63
2022/11/12 07:45:35;;;;;;;11.27;5.30;;;;;;;;;;5085121;28;20031;-63
2022/11/12 07:48:01;;;;;;;15.43;5.18;;;;;;;;;;5085538;28;20586;-64
2022/11/12 07:50:28;;;;;;;13.27;5.05;;;;;;;;;;5083992;28;20039;-63
2022/11/12 07:52:58;;;;;;;11.77;4.72;;;;;;;;;;5084704;28;20042;-64
2022/11/12 07:55:24;;;;;;;8.90;3.75;;;;;;;;;;5084462;28;20077;-64
2022/11/12 07:57:52;;;;;;;15.40;5.50;;;;;;;;;;5085650;28;20037;-64
2022/11/12 08:00:19;;;;;;;9.20;4.35;;;;;;;;;;5085182;27;20056;-63
2022/11/12 08:02:45;;;;;;;11.02;4.90;;;;;;;;;;5086017;28;20039;-63
2022/11/12 08:05:12;;;;;;;13.68;4.53;;;;;;;;;;5085186;27;20040;-65
2022/11/12 08:07:38;;;;;;;14.30;5.40;;;;;;;;;;5080489;28;20044;-64
2022/11/12 08:10:05;;;;;;;12.50;4.78;;;;;;;;;;5086092;28;20024;-64
2022/11/12 08:12:32;;;;;;;9.20;3.92;;;;;;;;;;5086938;28;20094;-66
2022/11/12 08:14:58;;;;;;;12.15;4.55;;;;;;;;;;5084409;28;20036;-64
2022/11/12 08:17:25;;;;;;;15.55;4.75;;;;;;;;;;5083395;28;20043;-65
2022/11/12 08:19:54;;;;;;;8.35;4.22;;;;;;;;;;5086798;28;20040;-64
2022/11/12 08:22:21;;;;;;;11.13;4.15;;;;;;;;;;5085457;28;20032;-66
2022/11/12 08:24:47;;;;;;;7.32;4.50;;;;;;;;;;5085930;28;20121;-64
2022/11/12 08:27:14;;;;;;;14.73;4.22;;;;;;;;;;5084327;28;20038;-65
2022/11/12 08:29:40;;;;;;;15.88;5.05;;;;;;;;;;5085536;27;20372;-64
2022/11/12 08:32:07;;;;;;;13.35;4.43;;;;;;;;;;5085861;28;20062;-65
2022/11/12 08:34:35;;;;;;;12.73;5.13;;;;;;;;;;5084689;27;20032;-65
2022/11/12 08:37:01;;;;;;;13.68;4.43;;;;;;;;;;5084709;28;20032;-65
2022/11/12 08:39:28;;;;;;;9.30;4.75;;;;;;;;;;5070969;27;20051;-65
2022/11/12 08:41:54;;;;;;;7.93;4.43;;;;;;;;;;5085634;28;20587;-65
2022/11/12 08:44:21;;;;;;;10.82;4.10;;;;;;;;;;5083869;28;20112;-66
2022/11/12 08:46:48;;;;;;;15.27;4.65;;;;;;;;;;5086534;28;20039;-65
2022/11/12 08:49:14;;;;;;;14.05;4.75;;;;;;;;;;5084562;28;20036;-65
2022/11/12 08:51:41;;;;;;;7.72;4.10;;;;;;;;;;5070201;28;20397;-67
2022/11/12 08:54:07;;;;;;;9.55;4.50;;;;;;;;;;5084140;28;20040;-65
2022/11/12 08:56:34;;;;;;;9.07;4.40;;;;;;;;;;5077523;28;20031;-65
2022/11/12 08:59:01;;;;;;;12.10;5.03;;;;;;;;;;5084919;28;20116;-65
2022/11/12 09:01:27;;;;;;;10.13;4.70;;;;;;;;;;5085205;27;20048;-62
2022/11/12 09:03:54;;;;;;;9.85;4.53;;;;;;;;;;5088073;28;20032;-65
2022/11/12 09:06:20;;;;;;;12.20;5.18;;;;;;;;;;5087576;27;20028;-65
2022/11/12 09:08:47;;;;;;;13.35;4.80;;;;;;;;;;5088064;28;20510;-65
2022/11/12 09:11:13;;;;;;;7.97;4.32;;;;;;;;;;5086934;27;20089;-62
2022/11/12 09:13:40;;;;;;;8.60;4.07;;;;;;;;;;5085689;28;20036;-64
2022/11/12 09:16:07;;;;;;;16.83;4.57;;;;;;;;;;5088630;28;20032;-64
2022/11/12 09:18:34;;;;;;;10.45;5.15;;;;;;;;;;5087478;28;20480;-65
2022/11/12 09:21:05;;;;;;;11.85;4.15;;;;;;;;;;5088526;28;20059;-65
2022/11/12 09:23:33;;;;;;;11.77;5.43;;;;;;;;;;5086846;28;20063;-62
2022/11/12 09:26:00;;;;;;;9.95;4.57;;;;;;;;;;5073735;28;20440;-63
2022/11/12 09:28:26;;;;;;;14.38;4.60;;;;;;;;;;5086426;28;20046;-63
2022/11/12 09:30:53;;;;;;;9.35;4.70;;;;;;;;;;5088184;28;20040;-62
2022/11/12 09:33:30;;;;;;;11.98;5.32;;;;;;;;;;5086820;28;20039;-62
2022/11/12 09:36:00;;;;;;;9.88;4.30;;;;;;;;;;5088389;28;20039;-63
2022/11/12 09:38:26;;;;;;;6.68;3.55;;;;;;;;;;5064919;28;20316;-64
2022/11/12 09:40:53;;;;;;;12.05;4.38;;;;;;;;;;5087055;27;20618;-65
2022/11/12 09:43:30;;;;;;;8.52;3.40;;;;;;;;;;5086764;28;20044;-65
2022/11/12 09:45:59;;;;;;;11.10;5.10;;;;;;;;;;5088448;28;20332;-64
2022/11/12 09:48:31;;;;;;;10.50;4.30;;;;;;;;;;5086920;28;20081;-64
2022/11/12 09:51:04;;;;;;;14.13;5.18;;;;;;;;;;5086094;28;20093;-63
2022/11/12 09:53:35;;;;;;;18.23;5.90;;;;;;;;;;5085279;28;20070;-63
2022/11/12 09:56:05;;;;;;;12.52;4.90;;;;;;;;;;5086916;27;20078;-64
2022/11/12 09:58:31;;;;;;;15.95;5.40;;;;;;;;;;5086088;28;20122;-63
2022/11/12 10:01:01;;;;;;;11.65;5.15;;;;;;;;;;5087979;27;20048;-65
2022/11/12 10:03:44;;;;;;;11.55;4.70;;;;;;;;;;5084222;28;20430;-65
2022/11/12 10:06:30;;;;;;;5.88;2.38;;;;;;;;;;5086605;28;20039;-63
2022/11/12 10:09:15;;;;;;;9.65;4.60;;;;;;;;;;5065444;28;20101;-65
2022/11/12 10:14:53;;;;;;;7.07;3.87;;;;;;;;;;5091723;27;20053;-63
2022/11/12 10:17:27;;;;;;;4.00;2.20;;;;;;;;;;5086259;28;20296;-64
2022/11/12 10:19:59;;;;;;;11.10;4.28;;;;;;;;;;5086662;27;20511;-64
2022/11/12 10:22:28;;;;;;;8.73;3.97;;;;;;;;;;5086210;28;20031;-63
2022/11/12 10:24:55;;;;;;;10.02;4.25;;;;;;;;;;5079026;28;20028;-64
2022/11/12 10:27:26;;;;;;;13.00;4.38;;;;;;;;;;5086434;28;20047;-66
2022/11/12 10:30:04;;;;;;;7.80;3.83;;;;;;;;;;5065529;28;20150;-63
2022/11/12 10:32:30;;;;;;;9.30;3.47;;;;;;;;;;5086159;28;20119;-65
2022/11/12 10:34:57;;;;;;;7.03;3.00;;;;;;;;;;5056189;28;20028;-63
2022/11/12 10:37:36;;;;;;;10.77;2.63;;;;;;;;;;5085220;28;20399;-64
2022/11/12 10:40:24;;;;;;;10.80;4.00;;;;;;;;;;5086800;27;20036;-63
2022/11/12 10:42:58;;;;;;;10.45;3.58;;;;;;;;;;5082926;28;20067;-63
2022/11/12 10:45:25;;;;;;;6.28;2.95;;;;;;;;;;5084207;28;20552;-65
2022/11/12 10:47:52;;;;;;;10.05;3.80;;;;;;;;;;5088672;28;20539;-63
2022/11/12 10:50:22;;;;;;;8.38;3.00;;;;;;;;;;5086666;28;20043;-63
2022/11/12 10:52:57;;;;;;;8.50;3.50;;;;;;;;;;5101298;27;20047;-64
2022/11/12 10:55:33;;;;;;;11.95;3.90;;;;;;;;;;5085739;27;20044;-65
2022/11/12 10:58:19;;;;;;;8.15;4.05;;;;;;;;;;5086475;28;20136;-64
2022/11/12 11:00:57;;;;;;;9.73;3.67;;;;;;;;;;5086892;27;20074;-64
2022/11/12 11:03:25;;;;;;;9.27;3.63;;;;;;;;;;5085958;28;20063;-64
2022/11/12 11:05:52;;;;;;;9.57;3.65;;;;;;;;;;5087522;28;20913;-65
2022/11/12 11:08:35;;;;;;;7.88;3.58;;;;;;;;;;5086899;28;20027;-63
2022/11/12 11:11:11;;;;;;;8.38;3.97;;;;;;;;;;5086659;28;20097;-63
2022/11/12 11:13:37;;;;;;;10.45;3.47;;;;;;;;;;5084631;28;20044;-62
2022/11/12 11:16:08;;;;;;;7.18;3.25;;;;;;;;;;5086499;28;20044;-64
2022/11/12 11:18:37;;;;;;;11.63;4.45;;;;;;;;;;5085748;28;20043;-62
2022/11/12 11:21:13;;;;;;;9.90;4.05;;;;;;;;;;5086422;28;20516;-62
2022/11/12 11:24:11;;;;;;;6.38;3.38;;;;;;;;;;5085003;27;21838;-64
2022/11/12 11:26:57;;;;;;;7.07;3.17;;;;;;;;;;5057248;28;20192;-65
2022/11/12 11:29:34;;;;;;;10.70;3.83;;;;;;;;;;5083126;27;20117;-63
2022/11/12 11:32:07;;;;;;;6.85;3.40;;;;;;;;;;5085742;28;20188;-64
2022/11/12 11:34:33;;;;;;;9.15;4.00;;;;;;;;;;5084260;27;20067;-65
2022/11/12 11:37:09;;;;;;;8.00;3.17;;;;;;;;;;5085885;28;20036;-62
2022/11/12 11:39:41;;;;;;;13.05;3.50;;;;;;;;;;5083865;28;20060;-64
2022/11/12 11:42:11;;;;;;;8.07;2.83;;;;;;;;;;5085258;28;20601;-66
2022/11/12 11:44:47;;;;;;;12.15;3.78;;;;;;;;;;5081813;28;20127;-63
2022/11/12 11:47:18;;;;;;;8.20;3.53;;;;;;;;;;5085420;28;20032;-64
2022/11/12 11:50:03;;;;;;;13.15;3.55;;;;;;;;;;5064858;28;20490;-63
2022/11/12 11:52:49;;;;;;;7.65;3.45;;;;;;;;;;5084429;28;20074;-64
2022/11/12 11:55:19;;;;;;;6.53;2.97;;;;;;;;;;5084828;28;20426;-64
2022/11/12 11:58:08;;;;;;;9.25;2.72;;;;;;;;;;5086302;28;20376;-65
2022/11/12 12:00:42;;;;;;;2.60;1.58;;;;;;;;;;5044423;28;20054;-65
2022/11/12 12:03:18;;;;;;;5.38;2.17;;;;;;;;;;5083859;28;20122;-62
2022/11/12 12:06:03;;;;;;;3.42;2.03;;;;;;;;;;5085090;28;20040;-64
2022/11/12 12:08:42;;;;;;;5.43;2.65;;;;;;;;;;5081197;28;20401;-66
2022/11/12 12:11:20;;;;;;;6.00;2.25;;;;;;;;;;5085770;27;20185;-64
2022/11/12 12:14:10;;;;;;;1.08;0.63;;;;;;;;;;5099734;28;20042;-66
2022/11/12 12:16:42;;;;;;;5.28;1.80;;;;;;;;;;5043214;28;20273;-64
2022/11/12 12:19:15;;;;;;;5.32;1.92;;;;;;;;;;5063802;28;20086;-63
2022/11/12 12:21:44;;;;;;;3.92;1.55;;;;;;;;;;5082633;27;20052;-66
2022/11/12 12:24:23;;;;;;;3.20;1.40;;;;;;;;;;5065325;28;20039;-65
2022/11/12 12:26:52;;;;;;;6.22;2.70;;;;;;;;;;5085704;28;20044;-63
2022/11/12 12:29:19;;;;;;;5.00;2.10;;;;;;;;;;5083468;28;20069;-64
2022/11/12 12:31:49;;;;;;;7.53;2.30;;;;;;;;;;5069677;28;20032;-65
2022/11/12 12:34:16;;;;;;;4.35;1.95;;;;;;;;;;5085072;28;20056;-64
2022/11/12 12:36:43;;;;;;;4.72;2.10;;;;;;;;;;5085201;28;20052;-65
2022/11/12 12:39:13;;;;;;;5.72;2.30;;;;;;;;;;5086985;28;20057;-64
2022/11/12 12:41:49;;;;;;;8.50;2.75;;;;;;;;;;5087816;28;20055;-66
2022/11/12 12:44:16;;;;;;;4.93;2.28;;;;;;;;;;5088638;28;20048;-64
2022/11/12 12:46:56;;;;;;;6.85;2.55;;;;;;;;;;5087677;28;20039;-66
2022/11/12 12:49:28;;;;;;;7.53;2.35;;;;;;;;;;5086484;27;20031;-65
2022/11/12 12:51:55;;;;;;;6.85;2.35;;;;;;;;;;5088513;28;20055;-64
2022/11/12 12:54:40;;;;;;;5.05;2.13;;;;;;;;;;5070770;28;20035;-65
2022/11/12 12:57:25;;;;;;;7.85;2.20;;;;;;;;;;5086830;28;20425;-65
2022/11/12 13:00:11;;;;;;;5.03;2.00;;;;;;;;;;5067415;28;20051;-64
2022/11/12 13:02:38;;;;;;;4.57;1.88;;;;;;;;;;5078506;28;20039;-64
2022/11/12 13:05:05;;;;;;;9.63;2.25;;;;;;;;;;5087625;27;20084;-65
2022/11/12 13:07:57;;;;;;;7.10;2.50;;;;;;;;;;5087568;28;20042;-65
2022/11/12 13:10:35;;;;;;;5.88;2.47;;;;;;;;;;5064998;28;20051;-65
2022/11/12 13:13:02;;;;;;;6.60;2.38;;;;;;;;;;5088489;28;20043;-64
2022/11/12 13:15:43;;;;;;;5.80;2.40;;;;;;;;;;5072295;28;20034;-65
2022/11/12 13:18:09;;;;;;;4.85;2.10;;;;;;;;;;5089139;28;20052;-65
2022/11/12 13:20:37;;;;;;;6.55;2.55;;;;;;;;;;5086369;28;22315;-64
2022/11/12 13:23:05;;;;;;;4.75;2.50;;;;;;;;;;5088218;28;20376;-64
2022/11/12 13:25:32;;;;;;;11.93;3.53;;;;;;;;;;5084488;28;20505;-63
2022/11/12 13:28:02;;;;;;;12.02;3.22;;;;;;;;;;5086939;28;20031;-67
2022/11/12 13:30:28;;;;;;;7.03;3.08;;;;;;;;;;5085782;28;20064;-65
2022/11/12 13:32:55;;;;;;;9.68;3.08;;;;;;;;;;5088083;28;20468;-65
2022/11/12 13:35:34;;;;;;;8.73;3.17;;;;;;;;;;5086664;28;20353;-64
2022/11/12 13:38:12;;;;;;;11.82;3.38;;;;;;;;;;5088154;28;20638;-69
2022/11/12 13:40:43;;;;;;;8.52;3.28;;;;;;;;;;5067134;28;20815;-65
2022/11/12 13:43:17;;;;;;;6.18;2.90;;;;;;;;;;5086820;28;20040;-66
2022/11/12 13:46:05;;;;;;;9.68;3.45;;;;;;;;;;5085735;27;20561;-64
2022/11/12 13:48:42;;;;;;;7.82;3.17;;;;;;;;;;5087356;28;20043;-65
2022/11/12 13:51:15;;;;;;;8.52;2.67;;;;;;;;;;5071804;28;20156;-66
2022/11/12 13:53:42;;;;;;;9.30;2.53;;;;;;;;;;5078937;28;20048;-68
2022/11/12 13:56:10;;;;;;;6.40;2.75;;;;;;;;;;5086706;28;20593;-66
2022/11/12 13:58:42;;;;;;;4.40;1.60;;;;;;;;;;5086052;28;20484;-69
2022/11/12 14:01:11;;;;;;;3.78;1.67;;;;;;;;;;5066914;28;20047;-66
2022/11/12 14:03:45;;;;;;;6.70;2.28;;;;;;;;;;5087642;28;20587;-66
2022/11/12 14:06:22;;;;;;;7.63;1.65;;;;;;;;;;5085535;28;20089;-67
2022/11/12 14:09:12;;;;;;;4.22;1.80;;;;;;;;;;5086137;28;20043;-64
2022/11/12 14:11:54;;;;;;;3.80;1.67;;;;;;;;;;5061180;28;20040;-66
2022/11/12 14:14:33;;;;;;;4.35;1.45;;;;;;;;;;5084273;28;20048;-67
2022/11/12 14:17:19;;;;;;;3.67;1.58;;;;;;;;;;5071332;28;20043;-66
2022/11/12 14:20:03;;;;;;;5.28;2.10;;;;;;;;;;5086407;28;20058;-65
2022/11/12 14:22:41;;;;;;;4.50;1.45;;;;;;;;;;5086020;28;20052;-65
2022/11/12 14:25:13;;;;;;;5.75;1.90;;;;;;;;;;5086745;28;20040;-64
2022/11/12 14:27:40;;;;;;;4.27;1.70;;;;;;;;;;5086750;28;20040;-63
2022/11/12 14:30:14;;;;;;;3.42;1.55;;;;;;;;;;5087748;27;20414;-65
2022/11/12 14:32:42;;;;;;;4.65;2.15;;;;;;;;;;5086047;28;20364;-65
2022/11/12 14:35:38;;;;;;;4.47;1.90;;;;;;;;;;5066283;28;20024;-64
2022/11/12 14:38:18;;;;;;;3.65;1.80;;;;;;;;;;5071657;28;20135;-64
2022/11/12 14:40:46;;;;;;;4.50;1.70;;;;;;;;;;5064564;28;20044;-66
2022/11/12 14:43:21;;;;;;;6.18;2.00;;;;;;;;;;5086660;28;20046;-64
2022/11/12 14:45:52;;;;;;;5.32;1.98;;;;;;;;;;5084666;27;20035;-65
2022/11/12 14:48:19;;;;;;;2.80;1.20;;;;;;;;;;5064882;28;20078;-66
2022/11/12 14:50:47;;;;;;;5.40;1.80;;;;;;;;;;5085961;28;20028;-64
2022/11/12 14:53:21;;;;;;;4.22;1.88;;;;;;;;;;5086290;28;20039;-65
2022/11/12 14:55:50;;;;;;;4.63;1.70;;;;;;;;;;5084898;28;20043;-65
2022/11/12 14:58:17;;;;;;;4.00;1.88;;;;;;;;;;5071371;28;20054;-66
2022/11/12 15:00:48;;;;;;;4.63;1.83;;;;;;;;;;5084469;27;20050;-65
2022/11/12 15:03:18;;;;;;;4.53;1.40;;;;;;;;;;5084618;28;20060;-64
2022/11/12 15:06:03;;;;;;;5.35;1.92;;;;;;;;;;5085097;27;20047;-66
2022/11/12 15:08:32;;;;;;;4.78;2.05;;;;;;;;;;5070002;28;20044;-66
2022/11/12 15:11:34;;;;;;;6.15;2.20;;;;;;;;;;5073257;28;20059;-69